sensor_id;sensor_type;location;lat;lon;timestamp;pressure;altitude;pressure_sealevel;temperature;humidity
6216;BME280;3141;49.234;9.326;2023-09-07T00:00:30;100008.66;;;18.48;76.11
6216;BME280;3141;49.234;9.326;2023-09-07T00:01:13;100003.28;;;18.48;75.90
6216;BME280;3141;49.234;9.326;2023-09-07T00:01:55;100002.44;;;18.40;76.24
6216;BME280;3141;49.234;9.326;2023-09-07T00:02:37;100006.09;;;18.39;76.22
6216;BME280;3141;49.234;9.326;2023-09-07T00:03:20;100007.78;;;18.40;76.00
6216;BME280;3141;49.234;9.326;2023-09-07T00:04:05;100005.75;;;18.42;75.87
6216;BME280;3141;49.234;9.326;2023-09-07T00:04:48;100003.09;;;18.49;75.27
6216;BME280;3141;49.234;9.326;2023-09-07T00:05:31;100002.22;;;18.42;75.42
6216;BME280;3141;49.234;9.326;2023-09-07T00:06:14;100000.81;;;18.46;75.33
6216;BME280;3141;49.234;9.326;2023-09-07T00:06:56;100007.59;;;18.49;75.00
6216;BME280;3141;49.234;9.326;2023-09-07T00:07:38;99997.53;;;18.51;74.98
6216;BME280;3141;49.234;9.326;2023-09-07T00:08:21;100006.16;;;18.46;74.98
6216;BME280;3141;49.234;9.326;2023-09-07T00:09:03;100006.19;;;18.53;74.64
6216;BME280;3141;49.234;9.326;2023-09-07T00:09:47;100004.28;;;18.47;74.82
6216;BME280;3141;49.234;9.326;2023-09-07T00:10:30;100007.78;;;18.40;74.96
6216;BME280;3141;49.234;9.326;2023-09-07T00:11:12;100003.16;;;18.34;75.34
6216;BME280;3141;49.234;9.326;2023-09-07T00:11:54;100004.19;;;18.27;75.73
6216;BME280;3141;49.234;9.326;2023-09-07T00:12:37;100001.50;;;18.27;75.99
6216;BME280;3141;49.234;9.326;2023-09-07T00:13:21;99998.53;;;18.15;76.52
6216;BME280;3141;49.234;9.326;2023-09-07T00:14:03;100008.44;;;18.15;76.52
6216;BME280;3141;49.234;9.326;2023-09-07T00:14:46;100004.69;;;18.09;77.03
6216;BME280;3141;49.234;9.326;2023-09-07T00:15:29;100005.94;;;18.13;77.00
6216;BME280;3141;49.234;9.326;2023-09-07T00:16:11;100010.66;;;18.11;77.16
6216;BME280;3141;49.234;9.326;2023-09-07T00:16:53;100008.81;;;18.12;77.17
6216;BME280;3141;49.234;9.326;2023-09-07T00:17:36;100009.63;;;18.12;77.20
6216;BME280;3141;49.234;9.326;2023-09-07T00:18:18;100012.06;;;18.07;77.29
6216;BME280;3141;49.234;9.326;2023-09-07T00:19:02;100005.44;;;18.03;77.60
6216;BME280;3141;49.234;9.326;2023-09-07T00:19:45;100001.75;;;18.04;77.53
6216;BME280;3141;49.234;9.326;2023-09-07T00:20:28;99999.50;;;18.01;77.47
6216;BME280;3141;49.234;9.326;2023-09-07T00:21:11;100008.53;;;18.00;78.05
6216;BME280;3141;49.234;9.326;2023-09-07T00:21:53;99998.84;;;17.99;78.26
6216;BME280;3141;49.234;9.326;2023-09-07T00:22:36;99999.69;;;18.00;78.48
6216;BME280;3141;49.234;9.326;2023-09-07T00:23:18;100001.75;;;18.04;78.23
6216;BME280;3141;49.234;9.326;2023-09-07T00:24:02;99995.97;;;18.01;78.39
6216;BME280;3141;49.234;9.326;2023-09-07T00:24:47;100003.81;;;18.02;78.01
6216;BME280;3141;49.234;9.326;2023-09-07T00:25:29;99998.91;;;18.06;77.97
6216;BME280;3141;49.234;9.326;2023-09-07T00:26:12;99997.69;;;18.08;77.64
6216;BME280;3141;49.234;9.326;2023-09-07T00:26:54;100002.41;;;18.06;77.74
6216;BME280;3141;49.234;9.326;2023-09-07T00:27:36;99999.31;;;18.09;77.47
6216;BME280;3141;49.234;9.326;2023-09-07T00:28:19;100006.09;;;18.05;77.52
6216;BME280;3141;49.234;9.326;2023-09-07T00:29:01;100008.75;;;18.05;77.53
6216;BME280;3141;49.234;9.326;2023-09-07T00:29:44;100002.97;;;18.02;77.63
6216;BME280;3141;49.234;9.326;2023-09-07T00:30:26;100001.94;;;17.96;78.18
6216;BME280;3141;49.234;9.326;2023-09-07T00:31:09;100004.84;;;18.01;77.66
6216;BME280;3141;49.234;9.326;2023-09-07T00:31:51;100000.09;;;18.03;77.50
6216;BME280;3141;49.234;9.326;2023-09-07T00:32:35;100006.47;;;18.02;77.31
6216;BME280;3141;49.234;9.326;2023-09-07T00:33:18;100004.22;;;17.99;77.30
6216;BME280;3141;49.234;9.326;2023-09-07T00:34:00;100007.50;;;18.01;77.44
6216;BME280;3141;49.234;9.326;2023-09-07T00:34:43;100010.00;;;18.03;77.16
6216;BME280;3141;49.234;9.326;2023-09-07T00:35:25;100003.41;;;18.05;77.14
6216;BME280;3141;49.234;9.326;2023-09-07T00:36:08;100002.97;;;18.02;77.00
6216;BME280;3141;49.234;9.326;2023-09-07T00:36:50;100009.16;;;18.02;77.17
6216;BME280;3141;49.234;9.326;2023-09-07T00:37:33;100008.28;;;17.95;77.56
6216;BME280;3141;49.234;9.326;2023-09-07T00:38:15;100006.84;;;17.93;77.92
6216;BME280;3141;49.234;9.326;2023-09-07T00:38:57;100013.63;;;17.95;77.63
6216;BME280;3141;49.234;9.326;2023-09-07T00:39:40;100002.28;;;17.93;77.75
6216;BME280;3141;49.234;9.326;2023-09-07T00:40:22;100006.19;;;17.91;77.78
6216;BME280;3141;49.234;9.326;2023-09-07T00:41:05;100001.41;;;17.86;77.97
6216;BME280;3141;49.234;9.326;2023-09-07T00:41:47;100001.19;;;17.81;78.61
6216;BME280;3141;49.234;9.326;2023-09-07T00:42:29;100008.41;;;17.81;78.49
6216;BME280;3141;49.234;9.326;2023-09-07T00:43:12;100006.53;;;17.81;78.50
6216;BME280;3141;49.234;9.326;2023-09-07T00:43:54;100008.56;;;17.79;78.63
6216;BME280;3141;49.234;9.326;2023-09-07T00:44:36;100008.50;;;17.73;78.47
6216;BME280;3141;49.234;9.326;2023-09-07T00:45:19;100012.41;;;17.70;78.62
6216;BME280;3141;49.234;9.326;2023-09-07T00:46:01;100008.06;;;17.69;78.66
6216;BME280;3141;49.234;9.326;2023-09-07T00:46:44;100005.03;;;17.72;78.68
6216;BME280;3141;49.234;9.326;2023-09-07T00:47:29;100009.19;;;17.81;78.01
6216;BME280;3141;49.234;9.326;2023-09-07T00:48:12;100001.19;;;17.81;77.63
6216;BME280;3141;49.234;9.326;2023-09-07T00:48:55;100007.41;;;17.88;77.36
6216;BME280;3141;49.234;9.326;2023-09-07T00:49:39;100004.34;;;17.91;76.81
6216;BME280;3141;49.234;9.326;2023-09-07T00:50:21;100001.22;;;17.88;76.71
6216;BME280;3141;49.234;9.326;2023-09-07T00:51:04;100005.75;;;17.87;76.57
6216;BME280;3141;49.234;9.326;2023-09-07T00:51:46;100006.16;;;17.84;76.58
6216;BME280;3141;49.234;9.326;2023-09-07T00:52:29;100000.81;;;17.84;76.45
6216;BME280;3141;49.234;9.326;2023-09-07T00:53:11;100001.56;;;17.78;76.62
6216;BME280;3141;49.234;9.326;2023-09-07T00:53:54;100008.31;;;17.74;76.93
6216;BME280;3141;49.234;9.326;2023-09-07T00:54:37;100003.97;;;17.67;76.92
6216;BME280;3141;49.234;9.326;2023-09-07T00:55:20;100002.88;;;17.61;77.28
6216;BME280;3141;49.234;9.326;2023-09-07T00:56:05;100007.19;;;17.62;77.52
6216;BME280;3141;49.234;9.326;2023-09-07T00:56:48;100006.53;;;17.60;77.69
6216;BME280;3141;49.234;9.326;2023-09-07T00:57:31;100003.88;;;17.60;77.82
6216;BME280;3141;49.234;9.326;2023-09-07T00:58:13;100000.97;;;17.55;78.10
6216;BME280;3141;49.234;9.326;2023-09-07T00:58:56;100004.47;;;17.56;78.04
6216;BME280;3141;49.234;9.326;2023-09-07T00:59:41;100003.25;;;17.58;78.04
6216;BME280;3141;49.234;9.326;2023-09-07T01:00:23;99996.88;;;17.59;77.60
6216;BME280;3141;49.234;9.326;2023-09-07T01:01:05;100004.50;;;17.62;77.58
6216;BME280;3141;49.234;9.326;2023-09-07T01:01:48;99998.13;;;17.57;77.49
6216;BME280;3141;49.234;9.326;2023-09-07T01:02:31;99999.72;;;17.51;77.77
6216;BME280;3141;49.234;9.326;2023-09-07T01:03:13;99997.69;;;17.53;77.96
6216;BME280;3141;49.234;9.326;2023-09-07T01:03:56;99993.72;;;17.49;77.87
6216;BME280;3141;49.234;9.326;2023-09-07T01:04:39;99999.06;;;17.49;78.20
6216;BME280;3141;49.234;9.326;2023-09-07T01:05:26;100001.34;;;17.52;77.86
6216;BME280;3141;49.234;9.326;2023-09-07T01:06:15;100009.13;;;17.47;78.10
6216;BME280;3141;49.234;9.326;2023-09-07T01:07:09;100001.53;;;17.51;78.14
6216;BME280;3141;49.234;9.326;2023-09-07T01:08:01;99993.31;;;17.52;77.83
6216;BME280;3141;49.234;9.326;2023-09-07T01:08:48;100001.16;;;17.54;77.71
6216;BME280;3141;49.234;9.326;2023-09-07T01:09:32;99999.31;;;17.54;77.55
6216;BME280;3141;49.234;9.326;2023-09-07T01:10:17;99994.38;;;17.51;77.66
6216;BME280;3141;49.234;9.326;2023-09-07T01:11:00;99995.81;;;17.54;77.56
6216;BME280;3141;49.234;9.326;2023-09-07T01:11:43;100002.00;;;17.54;77.61
6216;BME280;3141;49.234;9.326;2023-09-07T01:12:26;99996.00;;;17.52;77.78
6216;BME280;3141;49.234;9.326;2023-09-07T01:13:09;99995.59;;;17.55;77.89
6216;BME280;3141;49.234;9.326;2023-09-07T01:13:52;99999.75;;;17.58;77.36
6216;BME280;3141;49.234;9.326;2023-09-07T01:14:36;99996.44;;;17.56;77.45
6216;BME280;3141;49.234;9.326;2023-09-07T01:15:19;99995.00;;;17.53;77.70
6216;BME280;3141;49.234;9.326;2023-09-07T01:16:01;99989.00;;;17.51;77.70
6216;BME280;3141;49.234;9.326;2023-09-07T01:16:43;99988.56;;;17.48;77.96
6216;BME280;3141;49.234;9.326;2023-09-07T01:17:26;99993.91;;;17.48;78.13
6216;BME280;3141;49.234;9.326;2023-09-07T01:18:10;99998.78;;;17.44;78.04
6216;BME280;3141;49.234;9.326;2023-09-07T01:18:53;99990.97;;;17.43;78.44
6216;BME280;3141;49.234;9.326;2023-09-07T01:19:35;99996.31;;;17.43;78.29
6216;BME280;3141;49.234;9.326;2023-09-07T01:20:18;99996.66;;;17.40;78.58
6216;BME280;3141;49.234;9.326;2023-09-07T01:21:02;99990.44;;;17.32;79.20
6216;BME280;3141;49.234;9.326;2023-09-07T01:21:45;99998.34;;;17.41;78.69
6216;BME280;3141;49.234;9.326;2023-09-07T01:22:28;99995.91;;;17.46;78.54
6216;BME280;3141;49.234;9.326;2023-09-07T01:23:11;99996.78;;;17.46;78.33
6216;BME280;3141;49.234;9.326;2023-09-07T01:23:55;99993.00;;;17.41;78.86
6216;BME280;3141;49.234;9.326;2023-09-07T01:24:38;99998.78;;;17.44;78.46
6216;BME280;3141;49.234;9.326;2023-09-07T01:25:23;99996.78;;;17.46;78.32
6216;BME280;3141;49.234;9.326;2023-09-07T01:26:08;100000.44;;;17.45;78.48
6216;BME280;3141;49.234;9.326;2023-09-07T01:26:51;100001.25;;;17.46;78.52
6216;BME280;3141;49.234;9.326;2023-09-07T01:27:34;100003.81;;;17.54;77.97
6216;BME280;3141;49.234;9.326;2023-09-07T01:28:17;100003.19;;;17.52;77.86
6216;BME280;3141;49.234;9.326;2023-09-07T01:29:00;100005.06;;;17.51;77.78
6216;BME280;3141;49.234;9.326;2023-09-07T01:29:43;100008.38;;;17.53;77.69
6216;BME280;3141;49.234;9.326;2023-09-07T01:30:28;99999.31;;;17.54;77.73
6216;BME280;3141;49.234;9.326;2023-09-07T01:31:11;100006.31;;;17.55;77.72
6216;BME280;3141;49.234;9.326;2023-09-07T01:31:53;100007.34;;;17.54;77.65
6216;BME280;3141;49.234;9.326;2023-09-07T01:32:35;100004.66;;;17.54;77.57
6216;BME280;3141;49.234;9.326;2023-09-07T01:33:18;100003.47;;;17.57;77.37
6216;BME280;3141;49.234;9.326;2023-09-07T01:34:00;100000.44;;;17.45;77.97
6216;BME280;3141;49.234;9.326;2023-09-07T01:34:42;100003.03;;;17.39;78.32
6216;BME280;3141;49.234;9.326;2023-09-07T01:35:25;100007.75;;;17.37;78.70
6216;BME280;3141;49.234;9.326;2023-09-07T01:36:08;100006.91;;;17.36;78.79
6216;BME280;3141;49.234;9.326;2023-09-07T01:36:50;100000.31;;;17.32;78.73
6216;BME280;3141;49.234;9.326;2023-09-07T01:37:33;100007.31;;;17.33;79.00
6216;BME280;3141;49.234;9.326;2023-09-07T01:38:15;100000.31;;;17.32;78.81
6216;BME280;3141;49.234;9.326;2023-09-07T01:38:57;100000.31;;;17.32;79.23
6216;BME280;3141;49.234;9.326;2023-09-07T01:39:40;100008.72;;;17.29;79.37
6216;BME280;3141;49.234;9.326;2023-09-07T01:40:22;100008.97;;;17.34;79.28
6216;BME280;3141;49.234;9.326;2023-09-07T01:41:05;100001.00;;;17.41;78.77
6216;BME280;3141;49.234;9.326;2023-09-07T01:41:47;100011.13;;;17.45;78.28
6216;BME280;3141;49.234;9.326;2023-09-07T01:42:29;100009.28;;;17.46;78.47
6216;BME280;3141;49.234;9.326;2023-09-07T01:43:12;100007.28;;;17.48;78.49
6216;BME280;3141;49.234;9.326;2023-09-07T01:43:54;100007.75;;;17.37;78.93
6216;BME280;3141;49.234;9.326;2023-09-07T01:44:37;100007.63;;;17.45;78.63
6216;BME280;3141;49.234;9.326;2023-09-07T01:45:20;100005.41;;;17.48;78.73
6216;BME280;3141;49.234;9.326;2023-09-07T01:46:03;99994.28;;;17.45;78.58
6216;BME280;3141;49.234;9.326;2023-09-07T01:46:45;100007.47;;;17.46;78.76
6216;BME280;3141;49.234;9.326;2023-09-07T01:47:28;100008.19;;;17.40;79.06
6216;BME280;3141;49.234;9.326;2023-09-07T01:48:11;100009.22;;;17.39;79.21
6216;BME280;3141;49.234;9.326;2023-09-07T01:48:54;100003.03;;;17.39;79.16
6216;BME280;3141;49.234;9.326;2023-09-07T01:49:36;100007.75;;;17.37;79.47
6216;BME280;3141;49.234;9.326;2023-09-07T01:50:19;100008.88;;;17.27;79.92
6216;BME280;3141;49.234;9.326;2023-09-07T01:51:01;100007.25;;;17.26;80.31
6216;BME280;3141;49.234;9.326;2023-09-07T01:51:43;100015.84;;;17.22;80.50
6216;BME280;3141;49.234;9.326;2023-09-07T01:52:26;100007.19;;;17.20;80.51
6216;BME280;3141;49.234;9.326;2023-09-07T01:53:08;100001.44;;;17.23;80.88
6216;BME280;3141;49.234;9.326;2023-09-07T01:53:51;100005.28;;;17.35;79.85
6216;BME280;3141;49.234;9.326;2023-09-07T01:54:33;100008.19;;;17.40;79.43
6216;BME280;3141;49.234;9.326;2023-09-07T01:55:15;100013.53;;;17.40;79.35
6216;BME280;3141;49.234;9.326;2023-09-07T01:55:57;100008.38;;;17.39;79.86
6216;BME280;3141;49.234;9.326;2023-09-07T01:56:41;100004.69;;;17.40;79.68
6216;BME280;3141;49.234;9.326;2023-09-07T01:57:23;100008.97;;;17.34;79.97
6216;BME280;3141;49.234;9.326;2023-09-07T01:58:06;100004.44;;;17.34;80.06
6216;BME280;3141;49.234;9.326;2023-09-07T01:58:48;100001.75;;;17.34;80.12
6216;BME280;3141;49.234;9.326;2023-09-07T01:59:30;100004.25;;;17.36;79.44
6216;BME280;3141;49.234;9.326;2023-09-07T02:00:13;100004.44;;;17.34;79.80
6216;BME280;3141;49.234;9.326;2023-09-07T02:00:58;100004.00;;;17.31;79.86
6216;BME280;3141;49.234;9.326;2023-09-07T02:01:41;100009.59;;;17.36;79.14
6216;BME280;3141;49.234;9.326;2023-09-07T02:02:23;100002.00;;;17.40;79.25
6216;BME280;3141;49.234;9.326;2023-09-07T02:03:05;99994.78;;;17.33;79.35
6216;BME280;3141;49.234;9.326;2023-09-07T02:03:48;100007.31;;;17.33;79.44
6216;BME280;3141;49.234;9.326;2023-09-07T02:04:31;100004.38;;;17.28;79.92
6216;BME280;3141;49.234;9.326;2023-09-07T02:05:13;100005.97;;;17.22;80.29
6216;BME280;3141;49.234;9.326;2023-09-07T02:05:56;100006.34;;;17.19;80.27
6216;BME280;3141;49.234;9.326;2023-09-07T02:06:38;100008.19;;;17.19;80.24
6216;BME280;3141;49.234;9.326;2023-09-07T02:07:21;100003.94;;;17.24;80.17
6216;BME280;3141;49.234;9.326;2023-09-07T02:08:04;100006.75;;;17.16;80.22
6216;BME280;3141;49.234;9.326;2023-09-07T02:08:46;100008.38;;;17.17;80.24
6216;BME280;3141;49.234;9.326;2023-09-07T02:09:28;99996.50;;;17.20;80.41
6216;BME280;3141;49.234;9.326;2023-09-07T02:10:12;100005.06;;;17.15;80.63
6216;BME280;3141;49.234;9.326;2023-09-07T02:10:54;100007.28;;;17.12;80.84
6216;BME280;3141;49.234;9.326;2023-09-07T02:11:38;100006.28;;;17.13;80.86
6216;BME280;3141;49.234;9.326;2023-09-07T02:12:22;100004.63;;;17.12;81.11
6216;BME280;3141;49.234;9.326;2023-09-07T02:13:04;100003.44;;;17.14;80.73
6216;BME280;3141;49.234;9.326;2023-09-07T02:13:47;100004.00;;;17.10;80.93
6216;BME280;3141;49.234;9.326;2023-09-07T02:14:30;100000.31;;;17.11;80.97
6216;BME280;3141;49.234;9.326;2023-09-07T02:15:12;99997.44;;;17.12;80.75
6216;BME280;3141;49.234;9.326;2023-09-07T02:15:54;100001.34;;;17.10;80.94
6216;BME280;3141;49.234;9.326;2023-09-07T02:16:36;100003.81;;;17.11;81.15
6216;BME280;3141;49.234;9.326;2023-09-07T02:17:19;100003.34;;;17.08;80.89
6216;BME280;3141;49.234;9.326;2023-09-07T02:18:01;100002.13;;;17.10;80.89
6216;BME280;3141;49.234;9.326;2023-09-07T02:18:49;100001.41;;;17.16;80.22
6216;BME280;3141;49.234;9.326;2023-09-07T02:19:32;100005.44;;;17.12;80.54
6216;BME280;3141;49.234;9.326;2023-09-07T02:20:14;100009.97;;;17.12;80.64
6216;BME280;3141;49.234;9.326;2023-09-07T02:21:03;100012.81;;;17.10;80.70
6216;BME280;3141;49.234;9.326;2023-09-07T02:21:46;100012.19;;;17.08;80.70
6216;BME280;3141;49.234;9.326;2023-09-07T02:22:28;100004.75;;;17.04;80.83
6216;BME280;3141;49.234;9.326;2023-09-07T02:23:11;100008.72;;;17.08;80.75
6216;BME280;3141;49.234;9.326;2023-09-07T02:23:53;100004.34;;;17.07;80.73
6216;BME280;3141;49.234;9.326;2023-09-07T02:24:35;100013.69;;;16.96;81.90
6216;BME280;3141;49.234;9.326;2023-09-07T02:25:17;100006.13;;;17.00;81.76
6216;BME280;3141;49.234;9.326;2023-09-07T02:26:00;100006.13;;;17.00;82.21
6216;BME280;3141;49.234;9.326;2023-09-07T02:26:42;100006.59;;;17.03;81.73
6216;BME280;3141;49.234;9.326;2023-09-07T02:27:27;100004.56;;;17.05;81.66
6216;BME280;3141;49.234;9.326;2023-09-07T02:28:09;100006.78;;;17.02;81.79
6216;BME280;3141;49.234;9.326;2023-09-07T02:28:51;100001.63;;;17.00;81.80
6216;BME280;3141;49.234;9.326;2023-09-07T02:29:34;100005.78;;;17.03;81.88
6216;BME280;3141;49.234;9.326;2023-09-07T02:30:16;100008.78;;;17.00;81.63
6216;BME280;3141;49.234;9.326;2023-09-07T02:31:03;100007.22;;;17.05;81.38
6216;BME280;3141;49.234;9.326;2023-09-07T02:31:46;100011.75;;;17.05;81.11
6216;BME280;3141;49.234;9.326;2023-09-07T02:32:28;100009.50;;;17.08;80.79
6216;BME280;3141;49.234;9.326;2023-09-07T02:33:11;100009.16;;;17.11;80.80
6216;BME280;3141;49.234;9.326;2023-09-07T02:33:53;100006.03;;;17.08;80.53
6216;BME280;3141;49.234;9.326;2023-09-07T02:34:35;100005.19;;;17.07;80.67
6216;BME280;3141;49.234;9.326;2023-09-07T02:35:21;100001.34;;;17.10;80.44
6216;BME280;3141;49.234;9.326;2023-09-07T02:36:03;100005.19;;;17.07;80.66
6216;BME280;3141;49.234;9.326;2023-09-07T02:36:46;100004.81;;;17.10;80.39
6216;BME280;3141;49.234;9.326;2023-09-07T02:37:28;100011.31;;;17.01;80.80
6216;BME280;3141;49.234;9.326;2023-09-07T02:38:10;100008.06;;;17.06;80.78
6216;BME280;3141;49.234;9.326;2023-09-07T02:38:53;100006.41;;;17.05;80.67
6216;BME280;3141;49.234;9.326;2023-09-07T02:39:35;100009.91;;;17.05;80.72
6216;BME280;3141;49.234;9.326;2023-09-07T02:40:18;100011.75;;;17.05;81.29
6216;BME280;3141;49.234;9.326;2023-09-07T02:41:00;100012.91;;;17.17;80.38
6216;BME280;3141;49.234;9.326;2023-09-07T02:41:44;100008.63;;;17.22;79.56
6216;BME280;3141;49.234;9.326;2023-09-07T02:42:27;100007.25;;;17.26;79.73
6216;BME280;3141;49.234;9.326;2023-09-07T02:43:10;100012.91;;;17.17;79.78
6216;BME280;3141;49.234;9.326;2023-09-07T02:43:52;100013.34;;;17.20;80.00
6216;BME280;3141;49.234;9.326;2023-09-07T02:44:35;100015.41;;;17.18;79.92
6216;BME280;3141;49.234;9.326;2023-09-07T02:45:17;100009.16;;;17.11;80.25
6216;BME280;3141;49.234;9.326;2023-09-07T02:46:00;100015.25;;;17.05;80.88
6216;BME280;3141;49.234;9.326;2023-09-07T02:46:42;100012.38;;;17.07;80.77
6216;BME280;3141;49.234;9.326;2023-09-07T02:47:24;100008.44;;;17.03;80.80
6216;BME280;3141;49.234;9.326;2023-09-07T02:48:07;100012.13;;;17.02;81.03
6216;BME280;3141;49.234;9.326;2023-09-07T02:48:49;100009.84;;;16.99;81.28
6216;BME280;3141;49.234;9.326;2023-09-07T02:49:31;99997.66;;;16.96;81.27
6216;BME280;3141;49.234;9.326;2023-09-07T02:50:14;100010.66;;;16.99;81.02
6216;BME280;3141;49.234;9.326;2023-09-07T02:50:58;100011.03;;;16.96;81.42
6216;BME280;3141;49.234;9.326;2023-09-07T02:51:40;100002.56;;;16.93;81.25
6216;BME280;3141;49.234;9.326;2023-09-07T02:52:22;100000.28;;;16.90;81.60
6216;BME280;3141;49.234;9.326;2023-09-07T02:53:05;100005.22;;;16.93;81.50
6216;BME280;3141;49.234;9.326;2023-09-07T02:53:47;100000.06;;;16.91;81.65
6216;BME280;3141;49.234;9.326;2023-09-07T02:54:29;100006.25;;;16.92;81.78
6216;BME280;3141;49.234;9.326;2023-09-07T02:55:12;100000.72;;;16.93;81.25
6216;BME280;3141;49.234;9.326;2023-09-07T02:55:54;100000.06;;;16.91;81.66
6216;BME280;3141;49.234;9.326;2023-09-07T02:56:36;100001.56;;;16.94;81.54
6216;BME280;3141;49.234;9.326;2023-09-07T02:57:19;100000.78;;;17.00;81.34
6216;BME280;3141;49.234;9.326;2023-09-07T02:58:03;99997.31;;;16.99;80.92
6216;BME280;3141;49.234;9.326;2023-09-07T02:58:45;100000.03;;;17.06;80.77
6216;BME280;3141;49.234;9.326;2023-09-07T02:59:27;100000.03;;;17.06;80.50
6216;BME280;3141;49.234;9.326;2023-09-07T03:00:10;99999.59;;;17.02;80.65
6216;BME280;3141;49.234;9.326;2023-09-07T03:00:53;99998.56;;;17.03;80.70
6216;BME280;3141;49.234;9.326;2023-09-07T03:01:38;99994.91;;;17.04;80.89
6216;BME280;3141;49.234;9.326;2023-09-07T03:02:21;99997.75;;;17.03;80.53
6216;BME280;3141;49.234;9.326;2023-09-07T03:03:04;100001.44;;;17.02;80.52
6216;BME280;3141;49.234;9.326;2023-09-07T03:03:46;99999.03;;;17.07;80.18
6216;BME280;3141;49.234;9.326;2023-09-07T03:04:28;99994.69;;;17.06;80.35
6216;BME280;3141;49.234;9.326;2023-09-07T03:05:11;99995.59;;;17.13;80.48
6216;BME280;3141;49.234;9.326;2023-09-07T03:05:53;99998.47;;;17.11;79.92
6216;BME280;3141;49.234;9.326;2023-09-07T03:06:36;100000.94;;;17.13;79.70
6216;BME280;3141;49.234;9.326;2023-09-07T03:07:18;99995.22;;;17.16;79.64
6216;BME280;3141;49.234;9.326;2023-09-07T03:08:00;99992.53;;;17.16;79.43
6216;BME280;3141;49.234;9.326;2023-09-07T03:08:43;99998.09;;;17.14;79.65
6216;BME280;3141;49.234;9.326;2023-09-07T03:09:25;99996.88;;;17.17;79.68
6216;BME280;3141;49.234;9.326;2023-09-07T03:10:08;100002.13;;;17.10;79.73
6216;BME280;3141;49.234;9.326;2023-09-07T03:10:50;99999.03;;;17.07;80.34
6216;BME280;3141;49.234;9.326;2023-09-07T03:11:33;99994.06;;;17.04;80.30
6216;BME280;3141;49.234;9.326;2023-09-07T03:12:17;99993.41;;;17.02;80.62
6216;BME280;3141;49.234;9.326;2023-09-07T03:12:59;99995.53;;;17.06;80.23
6216;BME280;3141;49.234;9.326;2023-09-07T03:13:41;99995.91;;;17.03;80.51
6216;BME280;3141;49.234;9.326;2023-09-07T03:14:25;99988.34;;;17.07;80.55
6216;BME280;3141;49.234;9.326;2023-09-07T03:15:07;99996.00;;;17.10;80.11
6216;BME280;3141;49.234;9.326;2023-09-07T03:15:53;99997.81;;;17.09;80.08
6216;BME280;3141;49.234;9.326;2023-09-07T03:16:35;99989.41;;;17.12;80.52
6216;BME280;3141;49.234;9.326;2023-09-07T03:17:18;99985.38;;;17.16;79.81
6216;BME280;3141;49.234;9.326;2023-09-07T03:18:00;99988.69;;;17.18;79.63
6216;BME280;3141;49.234;9.326;2023-09-07T03:18:43;99992.59;;;17.22;79.27
6216;BME280;3141;49.234;9.326;2023-09-07T03:19:25;99988.28;;;17.21;79.41
6216;BME280;3141;49.234;9.326;2023-09-07T03:20:08;99977.16;;;17.18;79.51
6216;BME280;3141;49.234;9.326;2023-09-07T03:20:58;99984.13;;;17.19;79.66
6216;BME280;3141;49.234;9.326;2023-09-07T03:21:41;99985.81;;;17.20;79.77
6216;BME280;3141;49.234;9.326;2023-09-07T03:22:23;99986.47;;;17.22;79.44
6216;BME280;3141;49.234;9.326;2023-09-07T03:23:06;99983.78;;;17.22;79.64
6216;BME280;3141;49.234;9.326;2023-09-07T03:23:48;99985.44;;;17.23;79.70
6216;BME280;3141;49.234;9.326;2023-09-07T03:24:31;99979.03;;;17.24;79.23
6216;BME280;3141;49.234;9.326;2023-09-07T03:25:13;99990.38;;;17.26;79.17
6216;BME280;3141;49.234;9.326;2023-09-07T03:25:56;99979.88;;;17.24;79.36
6216;BME280;3141;49.234;9.326;2023-09-07T03:26:39;99985.47;;;17.29;78.95
6216;BME280;3141;49.234;9.326;2023-09-07T03:27:22;99988.34;;;17.28;79.03
6216;BME280;3141;49.234;9.326;2023-09-07T03:28:04;99988.75;;;17.25;79.29
6216;BME280;3141;49.234;9.326;2023-09-07T03:28:47;99983.13;;;17.20;79.54
6216;BME280;3141;49.234;9.326;2023-09-07T03:29:29;99985.16;;;17.18;79.70
6216;BME280;3141;49.234;9.326;2023-09-07T03:30:12;99983.69;;;17.15;79.89
6216;BME280;3141;49.234;9.326;2023-09-07T03:30:55;99984.72;;;17.14;80.10
6216;BME280;3141;49.234;9.326;2023-09-07T03:31:37;99994.31;;;17.09;80.45
6216;BME280;3141;49.234;9.326;2023-09-07T03:32:20;99991.59;;;17.02;80.67
6216;BME280;3141;49.234;9.326;2023-09-07T03:33:02;99995.28;;;17.01;80.87
6216;BME280;3141;49.234;9.326;2023-09-07T03:33:45;99995.09;;;17.03;81.13
6216;BME280;3141;49.234;9.326;2023-09-07T03:34:28;99984.28;;;17.11;80.64
6216;BME280;3141;49.234;9.326;2023-09-07T03:35:10;99991.25;;;17.12;80.61
6216;BME280;3141;49.234;9.326;2023-09-07T03:35:52;99994.31;;;17.09;80.65
6216;BME280;3141;49.234;9.326;2023-09-07T03:36:35;99993.88;;;17.05;81.17
6216;BME280;3141;49.234;9.326;2023-09-07T03:37:18;99988.59;;;17.12;80.45
6216;BME280;3141;49.234;9.326;2023-09-07T03:38:00;99996.25;;;17.15;80.30
6216;BME280;3141;49.234;9.326;2023-09-07T03:38:43;99992.75;;;17.14;80.33
6216;BME280;3141;49.234;9.326;2023-09-07T03:39:25;99984.47;;;17.09;80.84
6216;BME280;3141;49.234;9.326;2023-09-07T03:40:08;99991.00;;;17.07;80.53
6216;BME280;3141;49.234;9.326;2023-09-07T03:40:51;99993.47;;;17.08;80.38
6216;BME280;3141;49.234;9.326;2023-09-07T03:41:34;99986.09;;;17.10;80.12
6216;BME280;3141;49.234;9.326;2023-09-07T03:42:16;99984.47;;;17.09;79.69
6216;BME280;3141;49.234;9.326;2023-09-07T03:42:58;99987.41;;;17.14;79.60
6216;BME280;3141;49.234;9.326;2023-09-07T03:43:41;99985.91;;;17.12;79.71
6216;BME280;3141;49.234;9.326;2023-09-07T03:44:23;99991.84;;;17.07;79.89
6216;BME280;3141;49.234;9.326;2023-09-07T03:45:06;99996.34;;;17.07;80.24
6216;BME280;3141;49.234;9.326;2023-09-07T03:45:48;99994.25;;;17.02;80.42
6216;BME280;3141;49.234;9.326;2023-09-07T03:46:30;100000.44;;;17.03;80.23
6216;BME280;3141;49.234;9.326;2023-09-07T03:47:14;99996.72;;;17.04;80.54
6216;BME280;3141;49.234;9.326;2023-09-07T03:47:57;99991.59;;;17.02;80.42
6216;BME280;3141;49.234;9.326;2023-09-07T03:48:39;99991.13;;;16.99;80.03
6216;BME280;3141;49.234;9.326;2023-09-07T03:49:22;99986.81;;;16.98;80.46
6216;BME280;3141;49.234;9.326;2023-09-07T03:50:04;99990.09;;;17.00;80.36
6216;BME280;3141;49.234;9.326;2023-09-07T03:50:47;99986.81;;;16.98;80.49
6216;BME280;3141;49.234;9.326;2023-09-07T03:51:30;100001.25;;;17.03;80.52